Silver Peak Trail, Santa Catalina Island Weather observations

Data are for 10 minute period ending at time listed.
 Day   Time   Solar   Ave.   Ave.  Ave.  Vector    Max.   Stn.    Total
  of    of     Rad.   Air    Rel.  Wind   Wind     Wind   Baro.  Precip.
Year   Day            Temp.  Hum.  Speed  Dir.     Gust   Pres.         
2014   (PST)   W/m2    F      %     mph   deg.      mph    mb.     in.  
------------------------------------------------------------------------
 294    4:40    0.0    59   95.3     9     48.7    11.3    999.0   0.00  
 294    4:50    0.0    60   91.3     8     35.1    13.7    999.0   0.00  
 294    5:00    0.0    60   93.3     8     51.8     9.6    999.0   0.00  
 294    5:10    0.0    59   94.5     6     30.5     7.8    999.0   0.00  
 294    5:20    0.0    59   95.0     6     21.0     7.2    999.0   0.00  
 294    5:30    0.0    59   95.3     8     47.3    11.3    999.0   0.00  
 294    5:40    0.0    59   95.1    10     51.7    13.7    999.0   0.00  
 294    5:50    0.0    61   89.4    12     36.3    16.7    999.0   0.00  
 294    6:00    1.0    61   86.1     8     23.3    10.2    999.0   0.00  
 294    6:10    4.0    59   91.9     9     27.6    10.2    999.0   0.00  
 294    6:20   12.0    59   94.0     7     20.8    10.2    999.0   0.00  
 294    6:30   19.0    59   94.7     8     24.0     9.0    999.0   0.00  
 294    6:40   28.0    59   95.2     9     21.0    13.7    999.0   0.00  
 294    6:50   52.0    59   95.5    11     23.0    13.1    999.0   0.00  
 294    7:00   81.0    59   95.6    10     27.4    11.9    999.0   0.00  
 294    7:10  131.0    59   95.8     9     21.1    11.9    999.0   0.00  
 294    7:20  215.0    59   95.8     8     22.1    10.8    999.0   0.00  
 294    7:30  260.0    60   95.6     6     17.5     9.0    999.0   0.00  
 294    7:40  289.0    60   95.1     5     13.9     7.2    999.0   0.00  
 294    7:50  290.0    60   94.7     7     11.8     9.0    999.0   0.00  
 294    8:00  345.0    61   93.8     6     14.1     9.6    999.0   0.00  
 294    8:10  377.0    61   89.9     7     24.6    12.5    999.0   0.00  
 294    8:20  408.0    62   85.6     7     19.1     9.6    999.0   0.00  
 294    8:30  438.0    63   83.6     7     14.9     9.6    999.0   0.00  
 294    8:40  468.0    63   82.9     8     16.3    13.1    999.0   0.00  
 294    8:50  496.0    63   77.3     9     23.3    14.9    999.0   0.00  
 294    9:00  524.0    64   76.5     8     13.0    13.1    999.0   0.00  
 294    9:10  551.0    64   76.4     7     15.7    11.3    999.0   0.00  
 294    9:20  575.0    64   76.4     8     22.2    12.5    999.0   0.00  
 294    9:30  597.0    64   78.4     7     13.5    10.8    999.0   0.00  
 294    9:40  620.0    64   77.4     6     22.2    10.8    999.0   0.00  
 294    9:50  641.0    64   77.7     5     22.5     8.4    999.0   0.00  
 294   10:00  660.0    65   73.6     7     27.7    11.3    999.0   0.00  
 294   10:10  678.0    65   71.1     6     20.4     9.6    999.0   0.00  
 294   10:20  693.0    65   72.0     7     15.8    10.2    999.0   0.00  
 294   10:30  706.0    65   72.8     6      9.9    10.2    999.0   0.00  
 294   10:40  716.0    66   76.6     6     31.8     9.6    999.0   0.00  
 294   10:50  729.0    66   74.8     6     13.2     9.0    999.0   0.00  
 294   11:00  742.0    66   73.2     4     14.1     7.8    999.0   0.00  
 294   11:10  743.0    66   72.4     4     22.0     7.2    999.0   0.00  
 294   11:20  736.0    67   75.4     4     23.8     7.8    999.0   0.00  
 294   11:30  759.0    67   77.0     5      7.4     7.8    999.0   0.00  
 294   11:40  777.0    67   74.7     4     15.0     9.0    999.0   0.00  
 294   11:50  721.0    68   72.4     3      8.9     7.2    999.0   0.00  
 294   12:00  601.0    69   70.6     3     30.2     7.8    999.0   0.00  
 294   12:10  593.0    67   73.2     6     11.5    12.5    999.0   0.00  
 294   12:20  468.0    70   74.8     4    204.7     7.2    999.0   0.00  
 294   12:30  678.0    73   70.6     3    201.9     7.2    999.0   0.00  
 294   12:40  707.0    72   69.9     4    227.9     7.2    999.0   0.00  
 294   12:50  796.0    72   67.9     2    236.4     5.4    999.0   0.00  
 294   13:00  755.0    73   68.3     3    184.7     4.8    999.0   0.00  
 294   13:10  449.0    74   68.1     4    214.0     6.0    999.0   0.00  
 294   13:20  501.0    71   72.0     2    195.5     3.6    999.0   0.00  
 294   13:30  749.0    75   65.0     3    205.2     7.2    999.0   0.00  
 294   13:40  583.0    75   62.8     3    194.3     6.6    999.0   0.00  
 294   13:50  325.0    72   67.8     2    252.4     5.4    999.0   0.00  
 294   14:00  343.0    71   69.2     2    240.8     6.0    999.0   0.00  
 294   14:10  283.0    73   66.8     3    215.3     6.0    999.0   0.00  
 294   14:20  249.0    71   68.6     3    221.6     4.8    999.0   0.00  
 294   14:30  434.0    71   66.9     3    258.5     6.0    999.0   0.00  
 294   14:40  474.0    73   62.2     3    191.8     7.2    999.0   0.00  
 294   14:50  443.0    74   55.9     5    203.3    10.2    999.0   0.00  
 294   15:00  276.0    72   58.1     5    212.0     9.6    999.0   0.00  
 294   15:10  338.0    72   58.2     5    206.2     9.6    999.0   0.00  
 294   15:20  301.0    72   57.9     5    217.0    10.2    999.0   0.00  
 294   15:30  370.0    72   58.5     6    219.7     9.6    999.0   0.00  
 294   15:40  279.0    71   60.2     6    217.3    11.3    999.0   0.00  
 294   15:50  271.0    71   60.3     5    224.7     9.0    999.0   0.00  
 294   16:00  247.0    70   60.7     6    243.6    11.3    999.0   0.00  
 294   16:10  225.0    70   60.8     6    233.9    10.8    999.0   0.00  
 294   16:20  189.0    70   60.0     4    237.9     9.0    999.0   0.00  
 294   16:30  156.0    71   51.9     4    287.6     6.0    999.0   0.00  
 294   16:40  124.0    70   45.9     4    314.2     7.2    999.0   0.00  
 294   16:50   93.0    70   47.4     3    303.2     6.0    999.0   0.00  
 294   17:00   64.0    69   54.0     3    296.9     6.6    999.0   0.00  
 294   17:10   37.0    67   63.7     4    205.0     6.0    999.0   0.00  
 294   17:20   12.0    65   66.9     4    207.0     6.0    999.0   0.00  
 294   17:30    2.0    64   63.7     5    317.5     7.8    999.0   0.00  
 294   17:40    0.0    65   60.1     6    324.2     8.4    999.0   0.00  
 294   17:50    0.0    66   55.3     4    293.5     6.6    999.0   0.00  
 294   18:00    0.0    64   64.2     4      0.9     7.2    999.0   0.00  
 294   18:10    0.0    64   64.0     2    235.2     3.6    999.0   0.00  
 294   18:20    0.0    64   59.8     4    302.2     6.6    999.0   0.00  
 294   18:30    0.0    65   56.1     5    322.0     7.8    999.0   0.00  
 294   18:40    0.0    65   58.2     5    310.7     6.6    999.0   0.00  
 294   18:50    0.0    64   58.8     4    298.8     6.0    999.0   0.00  
 294   19:00    0.0    64   62.6     5    309.2     7.2    999.0   0.00  
 294   19:10    0.0    64   60.8     8    316.1    10.2    999.0   0.00  
 294   19:20    0.0    65   58.4     9    321.1    10.2    999.0   0.00  
 294   19:30    0.0    65   56.8     8    322.1    10.2    999.0   0.00  
 294   19:40    0.0    65   51.9     7    313.8     8.4    999.0   0.00  
 294   19:50    0.0    66   48.4     6    315.3     7.2    999.0   0.00  
 294   20:00    0.0    66   49.4     7    322.1     9.0    999.0   0.00  
 294   20:10    0.0    66   49.0     6    327.1     7.8    999.0   0.00  
 294   20:20    0.0    66   49.6     5    336.3     6.0    999.0   0.00  
 294   20:30    0.0    66   54.1     6    340.5     7.2    999.0   0.00  
 294   20:40    0.0    66   52.5     5    336.0     7.2    999.0   0.00  
 294   20:50    0.0    66   44.6     3    356.6     6.6    999.0   0.00  
 294   21:00    0.0    66   51.8     5    341.7     7.2    999.0   0.00  
 294   21:10    0.0    66   44.5     3    354.9     4.8    999.0   0.00  
 294   21:20    0.0    66   43.7     5     10.6     7.8    999.0   0.00  
 294   21:30    0.0    66   47.9     6     16.4     7.8    999.0   0.00  
 294   21:40    0.0    66   50.6     7    351.0     7.2    999.0   0.00  
 294   21:50    0.0    65   53.6     6      2.5     7.8    999.0   0.00  
 294   22:00    0.0    65   54.3     7     13.3     7.8    999.0   0.00  
 294   22:10    0.0    65   57.5     6      8.4     7.8    999.0   0.00  
 294   22:20    0.0    64   57.6     7      8.2     7.8    999.0   0.00  
 294   22:30    0.0    64   59.0     6     11.6     6.6    999.0   0.00  
 294   22:40    0.0    64   57.3     5     27.4     6.6    999.0   0.00  
 294   22:50    0.0    66   47.1     4     38.5     6.6    999.0   0.00  
 294   23:00    0.0    65   52.5     6     33.1     7.8    999.0   0.00  
 294   23:10    0.0    66   46.8     4     42.8     6.0    999.0   0.00  
 294   23:20    0.0    66   47.7     4     24.7     5.4    999.0   0.00  
 294   23:30    0.0    67   47.9     3     17.0     4.2    999.0   0.00  
 294   23:40    0.0    66   49.2     4     70.3     4.8    999.0   0.00  
 294   23:50    0.0    66   49.4     5     88.2     7.8    999.0   0.00  
 295    0:00    0.0    66   49.6     6     82.2     7.2    999.0   0.00  
 295    0:10    0.0    66   49.1     6    104.3     7.2    999.0   0.00  
 295    0:20    0.0    65   50.0     5    114.2     6.6    999.0   0.00  
 295    0:30    0.0    65   50.5     5    133.9     6.6    999.0   0.00  
 295    0:40    0.0    65   50.9     4    110.2     6.0    999.0   0.00  
 295    0:50    0.0    65   51.0     4     73.5     5.4    999.0   0.00  
 295    1:00    0.0    65   52.8     5     42.4     5.4    999.0   0.00  
 295    1:10    0.0    65   53.7     4     35.8     4.8    999.0   0.00  
 295    1:20    0.0    65   55.3     4     35.0     6.0    999.0   0.00  
 295    1:30    0.0    65   54.5     4     56.8     6.0    999.0   0.00  
 295    1:40    0.0    64   56.5     6     57.5     7.8    999.0   0.00  
 295    1:50    0.0    64   58.0     5     59.0     7.2    999.0   0.00  
 295    2:00    0.0    65   52.9     6     44.0     7.2    999.0   0.00  
 295    2:10    0.0    63   61.7     6     23.6     6.6    999.0   0.00  
 295    2:20    0.0    63   58.4     5     26.9     6.6    999.0   0.00  
 295    2:30    0.0    64   55.4     6     28.6     6.6    999.0   0.00  
 295    2:40    0.0    65   54.0     5     29.6     7.2    999.0   0.00  
 295    2:50    0.0    66   51.3     6     36.2     6.6    999.0   0.00  
 295    3:00    0.0    66   52.7     6     33.0     7.2    999.0   0.00  
 295    3:10    0.0    65   56.7     5     18.5     6.0    999.0   0.00  
 295    3:20    0.0    65   57.7     6     22.9     6.6    999.0   0.00  
 295    3:30    0.0    65   54.2     5     25.8     6.0    999.0   0.00  
 295    3:40    0.0    66   52.9     5     28.3     6.6    999.0   0.00  
 295    3:50    0.0    65   54.2     6     19.7     7.2    999.0   0.00  
 295    4:00    0.0    66   52.7     7     34.8     7.8    999.0   0.00  
 295    4:10    0.0    66   48.7     7     43.7     8.4    999.0   0.00  
 295    4:20    0.0    66   47.9     6     41.0     8.4    999.0   0.00  
 295    4:30    0.0    64   58.4     6     57.1     8.4    999.0   0.00  

Return to Silver Peak Trail graphs page.


Western Regional Climate Center,wrcc@dri.edu